createdAt,value
2023-05-16T00:00:48.445Z,22.50
2023-05-16T00:03:17.685Z,20.63
2023-05-16T00:05:46.867Z,21.40
2023-05-16T00:08:17.317Z,20.87
2023-05-16T00:10:46.471Z,20.80
2023-05-16T00:13:15.415Z,23.23
2023-05-16T00:15:44.619Z,24.60
2023-05-16T00:18:16.310Z,33.83
2023-05-16T00:20:45.550Z,33.93
2023-05-16T00:23:14.482Z,42.20
2023-05-16T00:25:46.420Z,43.87
2023-05-16T00:28:15.749Z,43.57
2023-05-16T00:30:44.713Z,46.20
2023-05-16T00:33:13.729Z,45.93
2023-05-16T00:35:42.861Z,43.17
2023-05-16T00:38:15.927Z,43.43
2023-05-16T00:40:48.521Z,43.10
2023-05-16T00:43:17.674Z,40.70
2023-05-16T00:45:46.917Z,39.67
2023-05-16T00:48:16.770Z,39.83
2023-05-16T00:50:46.018Z,36.63
2023-05-16T00:53:15.449Z,33.70
2023-05-16T00:55:44.766Z,34.10
2023-05-16T00:58:15.678Z,31.20
2023-05-16T01:00:47.840Z,27.67
2023-05-16T01:03:17.675Z,25.53
2023-05-16T01:05:48.377Z,24.37
2023-05-16T01:08:17.355Z,21.90
2023-05-16T01:10:55.159Z,19.40
2023-05-16T01:13:53.434Z,15.83
2023-05-16T01:16:27.813Z,16.63
2023-05-16T01:19:06.590Z,14.93
2023-05-16T01:21:46.374Z,14.57
2023-05-16T01:24:23.973Z,14.27
2023-05-16T01:26:55.772Z,13.67
2023-05-16T01:29:24.976Z,13.57
2023-05-16T01:31:53.951Z,13.20
2023-05-16T01:34:22.962Z,12.50
2023-05-16T01:37:04.587Z,14.33
2023-05-16T01:39:43.508Z,13.47
2023-05-16T01:42:17.294Z,12.87
2023-05-16T01:44:50.797Z,13.20
2023-05-16T01:47:22.204Z,12.93
2023-05-16T01:49:59.820Z,12.60
2023-05-16T01:52:32.783Z,12.57
2023-05-16T01:55:05.152Z,13.07
2023-05-16T01:57:36.692Z,12.47
2023-05-16T02:00:06.745Z,11.67
2023-05-16T02:02:43.086Z,11.90
2023-05-16T02:05:12.150Z,12.27
2023-05-16T02:07:41.368Z,12.10
2023-05-16T02:10:11.225Z,12.23
2023-05-16T02:12:42.044Z,11.33
2023-05-16T02:15:11.874Z,11.60
2023-05-16T02:17:40.884Z,10.93
2023-05-16T02:20:11.479Z,11.33
2023-05-16T02:22:59.245Z,10.47
2023-05-16T02:25:28.434Z,11.03
2023-05-16T02:27:59.080Z,10.60
2023-05-16T02:30:28.134Z,11.97
2023-05-16T02:32:57.418Z,11.13
2023-05-16T02:35:26.692Z,10.87
2023-05-16T02:37:56.050Z,10.93
2023-05-16T02:40:26.709Z,10.47
2023-05-16T02:42:55.686Z,10.90
2023-05-16T02:45:27.416Z,11.70
2023-05-16T02:47:56.692Z,12.03
2023-05-16T02:50:25.754Z,12.83
2023-05-16T02:52:56.124Z,11.23
2023-05-16T02:55:26.297Z,11.53
2023-05-16T02:57:55.254Z,11.03
2023-05-16T03:00:25.659Z,11.23
2023-05-16T03:02:54.712Z,11.60
2023-05-16T03:05:24.827Z,10.83
2023-05-16T03:07:55.190Z,10.40
2023-05-16T03:10:24.283Z,11.10
2023-05-16T03:12:53.495Z,10.03
2023-05-16T03:15:22.622Z,10.60
2023-05-16T03:17:52.931Z,10.47
2023-05-16T03:20:22.987Z,11.93
2023-05-16T03:22:52.325Z,10.07
2023-05-16T03:25:21.408Z,10.80
2023-05-16T03:27:50.400Z,10.97
2023-05-16T03:30:21.548Z,10.87
2023-05-16T03:32:52.155Z,11.47
2023-05-16T03:35:21.222Z,10.90
2023-05-16T03:37:50.170Z,11.37
2023-05-16T03:40:20.764Z,10.53
2023-05-16T03:42:49.795Z,12.43
2023-05-16T03:45:18.724Z,9.87
2023-05-16T03:47:48.565Z,9.73
2023-05-16T03:50:19.119Z,9.77
2023-05-16T03:53:06.842Z,9.43
2023-05-16T03:55:36.297Z,9.37
2023-05-16T03:58:05.407Z,10.33
2023-05-16T04:00:34.745Z,9.80
2023-05-16T04:03:04.429Z,9.70
2023-05-16T04:05:35.334Z,9.57
2023-05-16T04:08:04.379Z,9.43
2023-05-16T04:10:33.273Z,9.90
2023-05-16T04:13:02.152Z,9.97
2023-05-16T04:15:31.070Z,10.33
2023-05-16T04:17:59.876Z,10.93
2023-05-16T04:20:29.604Z,10.30
2023-05-16T04:23:01.427Z,10.17
2023-05-16T04:25:31.444Z,9.80
2023-05-16T04:28:00.444Z,10.00
2023-05-16T04:30:29.266Z,10.13
2023-05-16T04:32:59.667Z,10.83
2023-05-16T04:35:29.629Z,10.40
2023-05-16T04:37:58.852Z,9.97
2023-05-16T04:40:29.609Z,10.00
2023-05-16T04:42:59.100Z,10.20
2023-05-16T04:45:28.426Z,9.40
2023-05-16T04:47:57.933Z,10.93
2023-05-16T04:50:27.002Z,9.83
2023-05-16T04:52:56.677Z,9.63
2023-05-16T04:55:25.833Z,9.70
2023-05-16T04:57:56.657Z,9.73
2023-05-16T05:00:26.343Z,9.90
2023-05-16T05:03:00.892Z,9.67
2023-05-16T05:05:30.387Z,9.37
2023-05-16T05:08:00.639Z,9.63
2023-05-16T05:10:31.373Z,8.80
2023-05-16T05:13:01.766Z,10.67
2023-05-16T05:15:30.882Z,9.00
2023-05-16T05:17:59.828Z,8.93
2023-05-16T05:20:28.988Z,9.33
2023-05-16T05:22:58.030Z,7.87
2023-05-16T05:25:28.180Z,8.67
2023-05-16T05:27:57.323Z,9.97
2023-05-16T05:30:27.760Z,9.77
2023-05-16T05:32:56.872Z,13.93
2023-05-16T05:35:26.184Z,10.20
2023-05-16T05:37:55.270Z,10.07
2023-05-16T05:40:24.140Z,10.83
2023-05-16T05:42:53.032Z,10.67
2023-05-16T05:45:21.979Z,15.17
2023-05-16T05:47:52.447Z,13.63
2023-05-16T05:50:21.516Z,11.73
2023-05-16T05:52:50.434Z,12.03
2023-05-16T05:55:19.690Z,13.57
2023-05-16T05:57:48.545Z,17.90
2023-05-16T06:00:17.716Z,17.37
2023-05-16T06:02:48.366Z,12.73
2023-05-16T06:05:20.156Z,21.00
2023-05-16T06:07:49.317Z,15.70
2023-05-16T06:10:26.021Z,21.33
2023-05-16T06:13:08.288Z,23.87
2023-05-16T06:15:39.220Z,26.13
2023-05-16T06:18:08.206Z,22.53
2023-05-16T06:20:38.660Z,22.37
2023-05-16T06:23:07.614Z,85.10
2023-05-16T06:25:36.516Z,86.80
2023-05-16T06:28:05.539Z,60.90
2023-05-16T06:30:35.155Z,53.03
2023-05-16T06:33:04.178Z,55.67
2023-05-16T06:35:33.118Z,66.63
2023-05-16T06:38:03.543Z,61.73
2023-05-16T06:40:32.581Z,57.30
2023-05-16T06:43:01.518Z,27.37
2023-05-16T06:45:30.656Z,23.80
2023-05-16T06:48:01.857Z,13.93
2023-05-16T06:50:30.915Z,12.33
2023-05-16T06:52:59.814Z,12.43
2023-05-16T06:55:38.766Z,10.67
2023-05-16T06:58:07.867Z,11.20
2023-05-16T07:00:37.198Z,12.53
2023-05-16T07:03:06.616Z,11.83
2023-05-16T07:05:35.670Z,8.13
2023-05-16T07:08:07.067Z,8.70
2023-05-16T07:10:38.310Z,8.37
2023-05-16T07:13:18.396Z,9.10
2023-05-16T07:15:48.251Z,8.97
2023-05-16T07:18:17.145Z,12.93
2023-05-16T07:20:46.198Z,12.27
2023-05-16T07:23:15.212Z,19.37
2023-05-16T07:25:45.916Z,8.37
2023-05-16T07:28:15.572Z,7.50
2023-05-16T07:30:44.627Z,7.83
2023-05-16T07:33:18.739Z,8.30
2023-05-16T07:36:12.175Z,32.20
2023-05-16T07:38:45.881Z,11.73
2023-05-16T07:41:16.304Z,17.00
2023-05-16T07:43:45.552Z,18.60
2023-05-16T07:46:14.605Z,42.23
2023-05-16T07:48:43.648Z,45.77
2023-05-16T07:51:13.665Z,106.33
2023-05-16T07:53:42.845Z,75.20
2023-05-16T07:56:13.090Z,60.43
2023-05-16T07:58:44.144Z,58.27
2023-05-16T08:01:20.947Z,18.87
2023-05-16T08:03:55.636Z,38.90
2023-05-16T08:06:30.132Z,59.17
2023-05-16T08:08:59.519Z,32.10
2023-05-16T08:11:29.762Z,21.00
2023-05-16T08:14:00.720Z,24.27
2023-05-16T08:16:29.836Z,31.67
2023-05-16T08:19:05.443Z,44.63
2023-05-16T08:21:41.763Z,23.87
2023-05-16T08:24:11.608Z,34.17
2023-05-16T08:26:40.749Z,41.20
2023-05-16T08:29:15.170Z,42.33
2023-05-16T08:31:45.173Z,41.30
2023-05-16T08:34:14.329Z,29.00
2023-05-16T08:36:43.215Z,42.13
2023-05-16T08:39:12.947Z,19.47
2023-05-16T08:41:45.619Z,19.20
2023-05-16T08:44:24.519Z,28.57
2023-05-16T08:46:55.419Z,27.87
2023-05-16T08:49:27.100Z,67.13
2023-05-16T08:51:59.599Z,18.33
2023-05-16T08:54:28.893Z,8.30
2023-05-16T08:56:59.268Z,18.20
2023-05-16T08:59:30.212Z,28.07
2023-05-16T09:02:00.010Z,50.17
2023-05-16T09:04:29.471Z,12.00
2023-05-16T09:06:58.394Z,10.63
2023-05-16T09:09:27.499Z,8.63
2023-05-16T09:11:56.468Z,7.80
2023-05-16T09:14:25.409Z,8.30
2023-05-16T09:17:08.679Z,7.80
2023-05-16T09:19:41.387Z,8.40
2023-05-16T09:22:13.719Z,16.07
2023-05-16T09:24:43.128Z,12.50
2023-05-16T09:27:12.496Z,9.77
2023-05-16T09:29:43.425Z,23.00
2023-05-16T09:32:15.227Z,8.70
2023-05-16T09:34:48.834Z,9.33
2023-05-16T09:37:18.634Z,31.80
2023-05-16T09:39:49.576Z,16.93
2023-05-16T09:42:20.382Z,10.47
2023-05-16T09:44:51.534Z,8.83
2023-05-16T09:47:22.911Z,16.77
2023-05-16T09:50:11.194Z,12.40
2023-05-16T09:52:40.278Z,12.43
2023-05-16T09:55:10.194Z,13.17
2023-05-16T09:57:42.180Z,17.73
2023-05-16T10:00:13.503Z,9.87
2023-05-16T10:02:44.919Z,23.77
2023-05-16T10:05:14.300Z,18.23
2023-05-16T10:07:45.528Z,11.70
2023-05-16T10:10:16.428Z,16.97
2023-05-16T10:12:46.315Z,17.03
2023-05-16T10:15:20.227Z,15.47
2023-05-16T10:17:54.961Z,20.80
2023-05-16T10:20:27.067Z,9.43
2023-05-16T10:22:58.282Z,11.93
2023-05-16T10:25:31.762Z,10.40
2023-05-16T10:28:01.488Z,29.00
2023-05-16T10:30:30.708Z,16.73
2023-05-16T10:33:02.547Z,13.50
2023-05-16T10:35:33.071Z,10.77
2023-05-16T10:38:03.473Z,9.60
2023-05-16T10:40:33.915Z,7.83
2023-05-16T10:43:05.030Z,9.10
2023-05-16T10:45:34.341Z,10.70
2023-05-16T10:48:06.972Z,11.20
2023-05-16T10:50:43.384Z,7.67
2023-05-16T10:53:17.469Z,14.03
2023-05-16T10:56:10.552Z,10.43
2023-05-16T10:58:48.155Z,9.20
2023-05-16T11:01:22.547Z,42.07
2023-05-16T11:04:12.650Z,14.83
2023-05-16T11:06:52.249Z,13.10
2023-05-16T11:09:27.640Z,8.90
2023-05-16T11:12:03.093Z,9.77
2023-05-16T11:14:42.667Z,7.43
2023-05-16T11:17:30.429Z,13.67
2023-05-16T11:20:00.947Z,16.57
2023-05-16T11:22:32.132Z,9.70
2023-05-16T11:25:02.709Z,15.40
2023-05-16T11:27:33.149Z,18.37
2023-05-16T11:30:04.670Z,20.80
2023-05-16T11:32:35.601Z,21.90
2023-05-16T11:35:08.129Z,61.20
2023-05-16T11:37:39.497Z,13.67
2023-05-16T11:40:11.596Z,10.33
2023-05-16T11:42:42.819Z,37.10
2023-05-16T11:45:13.592Z,20.47
2023-05-16T11:47:44.701Z,10.50
2023-05-16T11:50:17.476Z,9.70
2023-05-16T11:52:49.009Z,8.23
2023-05-16T11:55:32.301Z,22.00
2023-05-16T11:58:08.989Z,17.73
2023-05-16T12:00:37.952Z,7.63
2023-05-16T12:03:08.407Z,8.90
2023-05-16T12:05:39.046Z,13.02
2023-05-16T12:08:08.120Z,22.00
2023-05-16T12:10:37.085Z,25.05
2023-05-16T12:13:06.431Z,17.90
2023-05-16T12:15:35.722Z,9.20
2023-05-16T12:18:04.740Z,10.65
2023-05-16T12:20:34.046Z,10.10
2023-05-16T12:23:04.789Z,8.85
2023-05-16T12:25:36.692Z,7.40
2023-05-16T12:28:07.961Z,8.07
2023-05-16T12:30:55.396Z,19.13
2023-05-16T12:33:24.420Z,26.90
2023-05-16T12:35:54.668Z,11.43
2023-05-16T12:38:29.372Z,13.17
2023-05-16T12:41:00.864Z,14.57
2023-05-16T12:43:29.906Z,8.37
2023-05-16T12:45:59.746Z,8.20
2023-05-16T12:48:35.914Z,7.90
2023-05-16T12:51:15.965Z,9.57
2023-05-16T12:54:01.607Z,8.33
2023-05-16T12:56:40.855Z,8.43
2023-05-16T12:59:10.268Z,10.13
2023-05-16T13:01:40.843Z,8.77
2023-05-16T13:04:14.943Z,8.57
2023-05-16T13:06:56.569Z,7.60
2023-05-16T13:09:32.755Z,6.80
2023-05-16T13:12:02.658Z,7.50
2023-05-16T13:14:31.983Z,8.57
2023-05-16T13:17:00.890Z,7.40
2023-05-16T13:19:34.708Z,8.40
2023-05-16T13:22:04.294Z,9.47
2023-05-16T13:24:34.701Z,10.63
2023-05-16T13:27:03.698Z,16.97
2023-05-16T13:29:32.614Z,12.50
2023-05-16T13:32:01.666Z,6.87
2023-05-16T13:34:30.667Z,7.47
2023-05-16T13:36:59.830Z,8.33
2023-05-16T13:39:28.984Z,7.20
2023-05-16T13:42:00.212Z,7.17
2023-05-16T13:44:29.347Z,7.20
2023-05-16T13:46:59.567Z,7.47
2023-05-16T13:49:28.862Z,6.90
2023-05-16T13:52:02.089Z,8.13
2023-05-16T13:54:31.565Z,8.07
2023-05-16T13:57:02.423Z,9.80
2023-05-16T14:00:03.449Z,7.83
2023-05-16T14:02:21.200Z,7.53
2023-05-16T14:04:50.322Z,8.87
2023-05-16T14:07:19.629Z,7.23
2023-05-16T14:09:48.524Z,8.63
2023-05-16T14:12:18.823Z,9.77
2023-05-16T14:14:47.864Z,8.97
2023-05-16T14:17:17.081Z,8.13
2023-05-16T14:19:46.030Z,11.00
2023-05-16T14:22:15.997Z,12.03
2023-05-16T14:24:44.997Z,11.57
2023-05-16T14:27:18.985Z,11.50
2023-05-16T14:29:50.031Z,14.40
2023-05-16T14:32:18.993Z,10.10
2023-05-16T14:34:47.906Z,12.07
2023-05-16T14:37:18.829Z,13.83
2023-05-16T14:39:50.791Z,23.20
2023-05-16T14:42:20.014Z,14.80
2023-05-16T14:44:50.365Z,11.70
2023-05-16T14:47:19.231Z,13.33
2023-05-16T14:49:48.367Z,11.53
2023-05-16T14:52:17.423Z,10.43
2023-05-16T14:54:46.353Z,10.30
2023-05-16T14:57:15.581Z,10.37
2023-05-16T14:59:44.620Z,9.87
2023-05-16T15:02:15.051Z,11.60
2023-05-16T15:04:44.454Z,12.43
2023-05-16T15:07:13.686Z,11.60
2023-05-16T15:09:43.210Z,11.80
2023-05-16T15:12:12.512Z,13.73
2023-05-16T15:14:41.579Z,14.13
2023-05-16T15:17:10.700Z,13.00
2023-05-16T15:19:41.609Z,12.13
2023-05-16T15:22:11.247Z,11.70
2023-05-16T15:24:40.732Z,11.53
2023-05-16T15:27:09.687Z,9.77
2023-05-16T15:29:38.844Z,10.07
2023-05-16T15:32:08.733Z,13.07
2023-05-16T15:34:38.020Z,16.07
2023-05-16T15:37:08.724Z,13.23
2023-05-16T15:39:37.690Z,12.57
2023-05-16T15:42:11.162Z,11.40
2023-05-16T15:44:40.788Z,10.57
2023-05-16T15:47:10.838Z,10.97
2023-05-16T15:49:40.063Z,9.43
2023-05-16T15:52:10.857Z,10.93
2023-05-16T15:54:39.945Z,10.73
2023-05-16T15:57:08.898Z,10.07
2023-05-16T15:59:37.901Z,13.43
2023-05-16T16:02:08.175Z,12.20
2023-05-16T16:04:37.109Z,11.67
2023-05-16T16:07:06.251Z,10.80
2023-05-16T16:09:36.754Z,10.70
2023-05-16T16:12:06.303Z,10.30
2023-05-16T16:14:35.346Z,19.37
2023-05-16T16:17:07.363Z,12.07
2023-05-16T16:19:54.950Z,27.30
2023-05-16T16:22:23.795Z,18.60
2023-05-16T16:25:12.843Z,22.90
2023-05-16T16:27:41.836Z,20.03
2023-05-16T16:30:11.524Z,18.30
2023-05-16T16:32:40.571Z,18.17
2023-05-16T16:35:10.134Z,17.50
2023-05-16T16:37:39.160Z,16.93
2023-05-16T16:40:12.018Z,16.17
2023-05-16T16:42:40.977Z,11.03
2023-05-16T16:45:10.818Z,11.83
2023-05-16T16:47:40.728Z,12.57
2023-05-16T16:50:11.063Z,10.17
2023-05-16T16:52:40.205Z,11.30
2023-05-16T16:55:09.818Z,11.93
2023-05-16T16:57:40.193Z,14.83
2023-05-16T17:00:11.565Z,16.20
2023-05-16T17:02:40.680Z,27.77
2023-05-16T17:05:11.225Z,27.53
2023-05-16T17:07:40.202Z,15.70
2023-05-16T17:10:10.183Z,12.70
2023-05-16T17:12:49.219Z,11.97
2023-05-16T17:15:18.729Z,11.87
2023-05-16T17:17:49.595Z,14.37
2023-05-16T17:20:18.627Z,13.40
2023-05-16T17:22:48.934Z,13.53
2023-05-16T17:25:17.976Z,12.23
2023-05-16T17:27:48.560Z,12.00
2023-05-16T17:30:18.707Z,11.13
2023-05-16T17:32:48.048Z,11.90
2023-05-16T17:35:17.050Z,12.90
2023-05-16T17:37:47.774Z,12.60
2023-05-16T17:40:18.062Z,12.43
2023-05-16T17:42:49.075Z,14.17
2023-05-16T17:45:18.122Z,13.67
2023-05-16T17:47:47.125Z,13.37
2023-05-16T17:50:23.459Z,13.93
2023-05-16T17:52:52.347Z,13.00
2023-05-16T17:55:23.352Z,14.03
2023-05-16T17:57:54.503Z,14.40
2023-05-16T18:00:24.710Z,15.63
2023-05-16T18:02:54.060Z,15.40
2023-05-16T18:05:23.465Z,17.43
2023-05-16T18:07:52.448Z,18.53
2023-05-16T18:10:21.673Z,19.27
2023-05-16T18:12:50.674Z,20.43
2023-05-16T18:15:21.133Z,21.60
2023-05-16T18:17:50.523Z,25.03
2023-05-16T18:20:19.705Z,25.47
2023-05-16T18:22:50.640Z,25.17
2023-05-16T18:25:19.916Z,26.03
2023-05-16T18:27:48.934Z,27.47
2023-05-16T18:30:18.056Z,26.90
2023-05-16T18:32:49.073Z,26.13
2023-05-16T18:35:18.262Z,23.97
2023-05-16T18:37:47.346Z,19.80
2023-05-16T18:40:16.470Z,16.50
2023-05-16T18:42:46.077Z,16.33
2023-05-16T18:45:15.184Z,17.30
2023-05-16T18:47:44.335Z,15.00
2023-05-16T18:50:14.825Z,14.60
2023-05-16T18:52:43.782Z,14.30
2023-05-16T18:55:12.860Z,15.03
2023-05-16T18:58:34.325Z,18.00
2023-05-16T19:01:04.111Z,16.70
2023-05-16T19:03:33.432Z,16.17
2023-05-16T19:08:46.509Z,15.00
2023-05-16T19:11:17.581Z,15.90
2023-05-16T19:13:47.452Z,18.20
2023-05-16T19:16:17.571Z,19.67
2023-05-16T19:18:48.721Z,16.53
2023-05-16T19:21:19.593Z,16.87
2023-05-16T19:23:49.748Z,20.87
2023-05-16T19:26:18.918Z,23.33
2023-05-16T19:28:48.788Z,23.77
2023-05-16T19:31:21.346Z,23.60
2023-05-16T19:33:50.343Z,24.70
2023-05-16T19:36:21.399Z,24.73
2023-05-16T19:38:50.420Z,25.10
2023-05-16T19:41:19.427Z,24.63
2023-05-16T19:43:48.972Z,22.87
2023-05-16T19:46:22.360Z,23.63
2023-05-16T19:48:52.926Z,23.67
2023-05-16T19:51:37.171Z,21.77
2023-05-16T19:54:09.855Z,20.30
2023-05-16T19:56:41.772Z,16.47
2023-05-16T19:59:10.904Z,14.40
2023-05-16T20:04:10.113Z,12.70
2023-05-16T20:06:40.694Z,12.93
2023-05-16T20:09:11.491Z,13.13
2023-05-16T20:11:40.668Z,12.63
2023-05-16T20:14:09.630Z,12.67
2023-05-16T20:16:38.602Z,12.67
2023-05-16T20:19:07.524Z,13.47
2023-05-16T20:21:36.611Z,13.67
2023-05-16T20:24:07.608Z,13.80
2023-05-16T20:26:36.640Z,13.53
2023-05-16T20:29:05.660Z,15.53
2023-05-16T20:31:34.834Z,16.80
2023-05-16T20:34:03.865Z,18.60
2023-05-16T20:36:32.893Z,18.87
2023-05-16T20:39:01.829Z,18.43
2023-05-16T20:41:32.289Z,14.20
2023-05-16T20:44:01.370Z,13.03
2023-05-16T20:46:30.468Z,13.33
2023-05-16T20:48:59.747Z,12.00
2023-05-16T20:51:28.927Z,13.10
2023-05-16T20:53:58.943Z,14.27
2023-05-16T20:56:28.055Z,13.83
2023-05-16T20:58:58.965Z,12.77
2023-05-16T21:01:28.017Z,14.43
2023-05-16T21:03:57.239Z,13.30
2023-05-16T21:06:26.379Z,15.17
2023-05-16T21:08:55.396Z,14.20
2023-05-16T21:11:24.603Z,15.50
2023-05-16T21:13:54.045Z,18.10
2023-05-16T21:16:27.003Z,19.43
2023-05-16T21:18:57.621Z,19.70
2023-05-16T21:21:27.824Z,18.53
2023-05-16T21:23:57.380Z,16.53
2023-05-16T21:26:26.660Z,16.40
2023-05-16T21:28:56.126Z,15.77
2023-05-16T21:31:26.675Z,19.43
2023-05-16T21:33:55.752Z,22.80
2023-05-16T21:36:24.848Z,26.90
2023-05-16T21:38:53.810Z,19.80
2023-05-16T21:41:23.455Z,16.43
2023-05-16T21:43:52.482Z,14.80
2023-05-16T21:46:21.494Z,16.13
2023-05-16T21:48:51.960Z,15.43
2023-05-16T21:51:21.175Z,15.57
2023-05-16T21:53:50.086Z,14.80
2023-05-16T21:56:19.403Z,13.17
2023-05-16T21:58:48.349Z,14.20
2023-05-16T22:01:17.603Z,13.83
2023-05-16T22:03:49.864Z,13.93
2023-05-16T22:06:20.685Z,12.63
2023-05-16T22:08:49.645Z,13.63
2023-05-16T22:11:18.876Z,20.97
2023-05-16T22:13:47.897Z,18.60
2023-05-16T22:16:16.829Z,19.37
2023-05-16T22:18:49.787Z,19.73
2023-05-16T22:21:38.794Z,16.13
2023-05-16T22:24:08.453Z,15.87
2023-05-16T22:26:37.737Z,15.57
2023-05-16T22:29:12.007Z,15.87
2023-05-16T22:31:41.149Z,14.97
2023-05-16T22:34:10.913Z,15.33
2023-05-16T22:36:42.461Z,17.03
2023-05-16T22:39:12.138Z,17.70
2023-05-16T22:41:40.980Z,22.53
2023-05-16T22:44:09.913Z,23.27
2023-05-16T22:46:38.817Z,18.77
2023-05-16T22:49:07.799Z,17.07
2023-05-16T22:51:36.869Z,18.40
2023-05-16T22:54:07.323Z,18.50
2023-05-16T22:56:36.364Z,19.27
2023-05-16T22:59:05.293Z,20.37
2023-05-16T23:01:34.410Z,21.37
2023-05-16T23:04:03.598Z,20.63
2023-05-16T23:06:32.764Z,20.40
2023-05-16T23:09:02.768Z,20.67
2023-05-16T23:11:33.626Z,21.43
2023-05-16T23:14:02.748Z,20.80
2023-05-16T23:16:31.712Z,20.13
2023-05-16T23:19:00.788Z,19.87
2023-05-16T23:21:29.801Z,19.93
2023-05-16T23:23:58.697Z,20.03
2023-05-16T23:26:27.630Z,20.47
2023-05-16T23:28:58.066Z,23.07
2023-05-16T23:31:27.255Z,23.40
2023-05-16T23:33:56.404Z,26.80
2023-05-16T23:36:25.680Z,28.40
2023-05-16T23:38:54.647Z,27.83
2023-05-16T23:41:23.604Z,28.47
2023-05-16T23:43:52.567Z,30.53
2023-05-16T23:46:22.990Z,30.00
2023-05-16T23:48:52.104Z,29.03
2023-05-16T23:51:21.867Z,29.37
2023-05-16T23:53:50.793Z,29.20
2023-05-16T23:56:19.855Z,36.07
2023-05-16T23:58:49.341Z,55.97
